Time;durP1;ratioP1;P1;durP2;ratioP2;P2;SDS_P1;SDS_P2;PMS_P1;PMS_P2;Temp;Humidity;BMP_temperature;BMP_pressure;BME280_temperature;BME280_humidity;BME280_pressure;Samples;Min_cycle;Max_cycle;Signal;HPM_P1;HPM_P2
2020/12/30 00:00:10;;;;;;;79.20;28.35;;;;;;;;;;5044147;28;20124;-57
2020/12/30 00:02:36;;;;;;;84.25;27.40;;;;;;;;;;5025139;28;20077;-59
2020/12/30 00:05:05;;;;;;;80.22;27.52;;;;;;;;;;5023983;28;20033;-58
2020/12/30 00:07:32;;;;;;;85.97;28.48;;;;;;;;;;5027897;28;20064;-58
2020/12/30 00:09:58;;;;;;;84.82;28.20;;;;;;;;;;5032842;28;20128;-58
2020/12/30 00:12:28;;;;;;;81.30;27.88;;;;;;;;;;5028056;28;20037;-59
2020/12/30 00:14:54;;;;;;;74.18;27.48;;;;;;;;;;5024300;28;20506;-58
2020/12/30 00:17:20;;;;;;;70.53;26.80;;;;;;;;;;5030460;28;20033;-58
2020/12/30 00:19:46;;;;;;;79.93;27.17;;;;;;;;;;5029956;28;20558;-58
2020/12/30 00:22:12;;;;;;;80.90;27.48;;;;;;;;;;5033076;28;20049;-58
2020/12/30 00:24:39;;;;;;;81.53;28.23;;;;;;;;;;5039793;28;20038;-58
2020/12/30 00:27:05;;;;;;;78.13;27.83;;;;;;;;;;5034992;28;20029;-58
2020/12/30 00:29:31;;;;;;;71.35;26.75;;;;;;;;;;5030543;28;20036;-58
2020/12/30 00:31:57;;;;;;;75.95;27.23;;;;;;;;;;5045992;28;20036;-57
2020/12/30 00:34:24;;;;;;;71.07;27.17;;;;;;;;;;5027461;28;20042;-58
2020/12/30 00:36:50;;;;;;;80.75;26.60;;;;;;;;;;5031184;28;20033;-58
2020/12/30 00:39:16;;;;;;;69.07;26.27;;;;;;;;;;5025428;28;20103;-58
2020/12/30 00:41:42;;;;;;;70.97;26.50;;;;;;;;;;5023800;28;20052;-58
2020/12/30 00:44:08;;;;;;;76.20;28.02;;;;;;;;;;5025611;28;20069;-58
2020/12/30 00:46:34;;;;;;;66.82;26.77;;;;;;;;;;5029876;28;20060;-58
2020/12/30 00:49:00;;;;;;;71.15;26.30;;;;;;;;;;5028123;28;20037;-58
2020/12/30 00:51:26;;;;;;;61.28;24.95;;;;;;;;;;5029697;28;20049;-58
2020/12/30 00:53:52;;;;;;;65.32;26.35;;;;;;;;;;5030132;28;20040;-58
2020/12/30 00:56:18;;;;;;;65.22;26.20;;;;;;;;;;5028498;28;20040;-58
2020/12/30 00:58:44;;;;;;;62.13;24.92;;;;;;;;;;5024052;28;20037;-58
2020/12/30 01:01:10;;;;;;;62.78;23.95;;;;;;;;;;5032572;28;20041;-58
2020/12/30 01:03:37;;;;;;;66.32;23.80;;;;;;;;;;5026041;28;20045;-58
2020/12/30 01:06:03;;;;;;;65.60;24.38;;;;;;;;;;5029741;28;20040;-58
2020/12/30 01:08:30;;;;;;;64.30;25.40;;;;;;;;;;5028959;28;20529;-58
2020/12/30 01:10:56;;;;;;;59.88;23.98;;;;;;;;;;5027768;28;20041;-57
2020/12/30 01:13:22;;;;;;;64.78;24.42;;;;;;;;;;5021625;28;20037;-58
2020/12/30 01:15:48;;;;;;;60.03;24.02;;;;;;;;;;5030231;28;20036;-58
2020/12/30 01:18:14;;;;;;;63.65;24.27;;;;;;;;;;5013009;28;20174;-58
2020/12/30 01:20:40;;;;;;;57.38;23.77;;;;;;;;;;5027265;28;20237;-58
2020/12/30 01:23:06;;;;;;;65.45;24.23;;;;;;;;;;5024412;28;21815;-58
2020/12/30 01:25:32;;;;;;;57.38;22.55;;;;;;;;;;5026961;28;20047;-58
2020/12/30 01:27:58;;;;;;;55.20;23.30;;;;;;;;;;5019343;28;20037;-58
2020/12/30 01:30:24;;;;;;;60.97;23.02;;;;;;;;;;5022611;28;20095;-56
2020/12/30 01:32:50;;;;;;;57.65;22.75;;;;;;;;;;5024136;28;20037;-57
2020/12/30 01:35:16;;;;;;;58.97;24.67;;;;;;;;;;5026213;28;20048;-58
2020/12/30 01:37:42;;;;;;;52.00;22.17;;;;;;;;;;5023798;28;20048;-57
2020/12/30 01:40:09;;;;;;;64.28;24.13;;;;;;;;;;5026571;28;20041;-57
2020/12/30 01:42:43;;;;;;;56.65;22.67;;;;;;;;;;5027738;28;20040;-58
2020/12/30 01:45:09;;;;;;;56.10;23.55;;;;;;;;;;5021200;28;20388;-58
2020/12/30 01:47:35;;;;;;;58.53;22.58;;;;;;;;;;5022810;28;20357;-57
2020/12/30 01:50:01;;;;;;;56.38;23.73;;;;;;;;;;5020650;28;20051;-57
2020/12/30 01:52:28;;;;;;;57.22;23.50;;;;;;;;;;5021058;28;20388;-57
2020/12/30 01:54:54;;;;;;;55.97;23.90;;;;;;;;;;5029379;28;20488;-58
2020/12/30 01:57:20;;;;;;;62.22;24.50;;;;;;;;;;5025877;28;20037;-58
2020/12/30 01:59:49;;;;;;;64.07;25.65;;;;;;;;;;5030354;28;21123;-57
2020/12/30 02:02:15;;;;;;;77.75;27.45;;;;;;;;;;5023082;28;20037;-58
2020/12/30 02:04:47;;;;;;;73.97;28.95;;;;;;;;;;5007465;28;20028;-58
2020/12/30 02:07:13;;;;;;;76.40;31.05;;;;;;;;;;5023147;28;21937;-58
2020/12/30 02:09:40;;;;;;;72.43;30.27;;;;;;;;;;5025832;28;20395;-56
2020/12/30 02:12:07;;;;;;;77.13;30.33;;;;;;;;;;5030535;28;20037;-57
2020/12/30 02:14:33;;;;;;;80.45;31.58;;;;;;;;;;5020130;28;20128;-58
2020/12/30 02:16:59;;;;;;;73.72;30.33;;;;;;;;;;5025767;28;20040;-58
2020/12/30 02:19:25;;;;;;;77.50;31.00;;;;;;;;;;5025652;28;20041;-57
2020/12/30 02:21:53;;;;;;;81.75;33.03;;;;;;;;;;5025086;28;20041;-57
2020/12/30 02:24:22;;;;;;;80.15;31.20;;;;;;;;;;5038188;28;20660;-58
2020/12/30 02:26:48;;;;;;;75.40;30.40;;;;;;;;;;5023595;28;20123;-58
2020/12/30 02:29:14;;;;;;;72.63;29.60;;;;;;;;;;5024499;28;20044;-58
2020/12/30 02:31:40;;;;;;;73.18;30.25;;;;;;;;;;5025794;28;20052;-57
2020/12/30 02:34:06;;;;;;;83.75;32.95;;;;;;;;;;5024561;28;20029;-58
2020/12/30 02:36:32;;;;;;;83.32;33.67;;;;;;;;;;5021439;28;20665;-58
2020/12/30 02:38:58;;;;;;;78.60;31.40;;;;;;;;;;5029036;28;20029;-58
2020/12/30 02:41:24;;;;;;;83.53;32.40;;;;;;;;;;5028250;28;20119;-58
2020/12/30 02:43:50;;;;;;;81.18;32.45;;;;;;;;;;5041526;28;20044;-57
2020/12/30 02:46:16;;;;;;;81.95;32.65;;;;;;;;;;5023716;28;23683;-58
2020/12/30 02:48:42;;;;;;;83.25;32.40;;;;;;;;;;5013396;28;20134;-58
2020/12/30 02:51:08;;;;;;;86.15;32.97;;;;;;;;;;5015479;28;20049;-58
2020/12/30 02:53:34;;;;;;;86.22;33.55;;;;;;;;;;5015650;28;20040;-58
2020/12/30 02:56:00;;;;;;;83.53;32.78;;;;;;;;;;5022799;28;20048;-58
2020/12/30 02:58:26;;;;;;;83.88;32.67;;;;;;;;;;5017348;28;20167;-58
2020/12/30 03:00:52;;;;;;;85.47;33.30;;;;;;;;;;5021273;28;20537;-58
2020/12/30 03:03:18;;;;;;;85.32;34.47;;;;;;;;;;5021441;28;20045;-58
2020/12/30 03:05:44;;;;;;;83.50;33.85;;;;;;;;;;5014832;28;20039;-58
2020/12/30 03:08:10;;;;;;;91.78;34.53;;;;;;;;;;5006769;28;20037;-58
2020/12/30 03:10:36;;;;;;;87.47;34.15;;;;;;;;;;5020622;28;20413;-58
2020/12/30 03:13:02;;;;;;;88.28;35.00;;;;;;;;;;5023185;28;20706;-58
2020/12/30 03:15:28;;;;;;;88.55;35.92;;;;;;;;;;5021932;28;20041;-58
2020/12/30 03:17:54;;;;;;;90.35;33.92;;;;;;;;;;5027970;28;20574;-58
2020/12/30 03:20:20;;;;;;;92.43;34.80;;;;;;;;;;5024955;28;20037;-58
2020/12/30 03:22:46;;;;;;;87.93;35.63;;;;;;;;;;5021341;28;20098;-58
2020/12/30 03:25:12;;;;;;;92.18;35.92;;;;;;;;;;5029943;28;20037;-58
2020/12/30 03:27:38;;;;;;;85.05;34.53;;;;;;;;;;5022044;28;20041;-58
2020/12/30 03:30:05;;;;;;;93.63;35.80;;;;;;;;;;5033752;28;20049;-57
2020/12/30 03:32:31;;;;;;;89.90;35.50;;;;;;;;;;5028523;28;20171;-57
2020/12/30 03:34:57;;;;;;;98.32;36.05;;;;;;;;;;5024446;28;20850;-57
2020/12/30 03:37:23;;;;;;;95.65;36.45;;;;;;;;;;5025294;28;20033;-58
2020/12/30 03:39:49;;;;;;;95.88;36.30;;;;;;;;;;5024894;28;20510;-58
2020/12/30 03:42:15;;;;;;;91.65;35.05;;;;;;;;;;5032281;28;20037;-58
2020/12/30 03:44:42;;;;;;;99.32;36.40;;;;;;;;;;5023654;28;20040;-58
2020/12/30 03:47:08;;;;;;;86.32;33.97;;;;;;;;;;5036457;28;20033;-58
2020/12/30 03:49:34;;;;;;;94.18;38.15;;;;;;;;;;5024378;28;20506;-58
2020/12/30 03:52:01;;;;;;;88.55;35.13;;;;;;;;;;5027758;28;20116;-57
2020/12/30 03:54:28;;;;;;;93.88;38.38;;;;;;;;;;5020261;28;20041;-58
2020/12/30 03:56:54;;;;;;;84.95;36.17;;;;;;;;;;5027330;28;20044;-58
2020/12/30 03:59:20;;;;;;;86.30;38.38;;;;;;;;;;5028519;28;20037;-58
2020/12/30 04:01:46;;;;;;;89.53;35.22;;;;;;;;;;5022528;28;20101;-58
2020/12/30 04:04:15;;;;;;;84.70;36.90;;;;;;;;;;5016411;28;20831;-57
2020/12/30 04:06:42;;;;;;;89.32;36.67;;;;;;;;;;5018262;28;20544;-57
2020/12/30 04:09:08;;;;;;;83.60;34.70;;;;;;;;;;5024073;28;20053;-58
2020/12/30 04:11:34;;;;;;;87.57;36.58;;;;;;;;;;5024983;28;20049;-58
2020/12/30 04:14:00;;;;;;;82.68;34.58;;;;;;;;;;5015521;28;20071;-58
2020/12/30 04:16:26;;;;;;;83.60;35.63;;;;;;;;;;5019423;28;20048;-58
2020/12/30 04:18:52;;;;;;;89.75;35.45;;;;;;;;;;5019776;28;20040;-58
2020/12/30 04:21:22;;;;;;;84.38;35.58;;;;;;;;;;5020498;28;20575;-58
2020/12/30 04:23:48;;;;;;;87.75;35.30;;;;;;;;;;5016523;28;20045;-58
2020/12/30 04:26:14;;;;;;;81.45;34.20;;;;;;;;;;5017180;28;20059;-58
2020/12/30 04:28:41;;;;;;;87.68;35.35;;;;;;;;;;5014922;28;20033;-58
2020/12/30 04:31:09;;;;;;;80.88;35.17;;;;;;;;;;5017058;28;20790;-56
2020/12/30 04:33:35;;;;;;;81.43;34.80;;;;;;;;;;5016945;28;20521;-58
2020/12/30 04:36:01;;;;;;;82.53;34.95;;;;;;;;;;5026378;28;20041;-58
2020/12/30 04:38:27;;;;;;;92.93;35.33;;;;;;;;;;5013574;28;20044;-58
2020/12/30 04:40:58;;;;;;;93.45;35.60;;;;;;;;;;5013535;28;20127;-57
2020/12/30 04:43:25;;;;;;;78.10;33.58;;;;;;;;;;5033277;28;20455;-58
2020/12/30 04:45:53;;;;;;;84.35;35.22;;;;;;;;;;5019099;28;20128;-58
2020/12/30 04:48:20;;;;;;;76.43;35.10;;;;;;;;;;5021525;28;20037;-58
2020/12/30 04:50:46;;;;;;;74.65;33.85;;;;;;;;;;5035432;28;21662;-58
2020/12/30 04:53:13;;;;;;;84.18;33.88;;;;;;;;;;5021165;28;20045;-58
2020/12/30 04:55:41;;;;;;;71.32;31.88;;;;;;;;;;5018071;28;20542;-58
2020/12/30 04:58:10;;;;;;;72.72;32.55;;;;;;;;;;5021146;28;20621;-58
2020/12/30 05:00:37;;;;;;;70.45;30.73;;;;;;;;;;5023530;28;20099;-58
2020/12/30 05:03:07;;;;;;;75.70;30.63;;;;;;;;;;5019800;28;20483;-58
2020/12/30 05:05:34;;;;;;;68.65;29.60;;;;;;;;;;5021825;28;20037;-58
2020/12/30 05:08:00;;;;;;;71.95;31.55;;;;;;;;;;5033449;28;20041;-59
2020/12/30 05:10:26;;;;;;;70.50;32.97;;;;;;;;;;5024070;28;20044;-58
2020/12/30 05:12:54;;;;;;;65.82;30.67;;;;;;;;;;5022691;28;20396;-58
2020/12/30 05:15:20;;;;;;;78.38;32.20;;;;;;;;;;5021568;28;20126;-58
2020/12/30 05:17:46;;;;;;;68.30;31.10;;;;;;;;;;5016420;28;20171;-58
2020/12/30 05:20:12;;;;;;;62.35;29.83;;;;;;;;;;5020472;28;20156;-58
2020/12/30 05:22:38;;;;;;;62.47;30.02;;;;;;;;;;5017032;28;20037;-58
2020/12/30 05:25:05;;;;;;;70.13;30.58;;;;;;;;;;5016644;28;20037;-58
2020/12/30 05:27:32;;;;;;;65.70;29.75;;;;;;;;;;5027000;28;20041;-57
2020/12/30 05:29:58;;;;;;;67.80;31.02;;;;;;;;;;5039679;28;20496;-62
2020/12/30 05:32:24;;;;;;;69.07;30.67;;;;;;;;;;5031507;28;20118;-58
2020/12/30 05:34:53;;;;;;;71.38;29.13;;;;;;;;;;5021238;28;20056;-58
2020/12/30 05:37:28;;;;;;;64.97;30.38;;;;;;;;;;5029437;28;20087;-58
2020/12/30 05:39:54;;;;;;;59.65;28.00;;;;;;;;;;5027392;28;20099;-58
2020/12/30 05:42:20;;;;;;;65.30;28.60;;;;;;;;;;5029814;28;20486;-58
2020/12/30 05:44:47;;;;;;;62.75;29.98;;;;;;;;;;5030007;28;20040;-58
2020/12/30 05:47:20;;;;;;;62.60;30.33;;;;;;;;;;5029387;28;20482;-58
2020/12/30 05:49:47;;;;;;;64.88;30.08;;;;;;;;;;5013935;28;20044;-58
2020/12/30 05:52:19;;;;;;;68.53;30.50;;;;;;;;;;5026865;28;20234;-58
2020/12/30 05:54:46;;;;;;;66.93;29.42;;;;;;;;;;5026840;28;20034;-57
2020/12/30 05:57:19;;;;;;;63.70;29.90;;;;;;;;;;5028436;28;20040;-58
2020/12/30 05:59:45;;;;;;;68.25;28.15;;;;;;;;;;5024296;28;20080;-58
2020/12/30 06:02:12;;;;;;;64.60;30.83;;;;;;;;;;5007221;28;20041;-58
2020/12/30 06:04:38;;;;;;;59.55;28.58;;;;;;;;;;5018020;28;20519;-58
2020/12/30 06:07:04;;;;;;;68.85;30.70;;;;;;;;;;5032542;28;20497;-58
2020/12/30 06:09:37;;;;;;;63.70;29.27;;;;;;;;;;5026522;28;20037;-58
2020/12/30 06:12:05;;;;;;;65.00;30.95;;;;;;;;;;5033677;28;20029;-58
2020/12/30 06:14:31;;;;;;;62.25;28.65;;;;;;;;;;5030643;28;20134;-58
2020/12/30 06:17:00;;;;;;;66.07;29.40;;;;;;;;;;5029402;28;20037;-58
2020/12/30 06:19:27;;;;;;;68.45;28.23;;;;;;;;;;5026502;28;20450;-58
2020/12/30 06:21:53;;;;;;;65.68;29.25;;;;;;;;;;5044293;28;20049;-58
2020/12/30 06:24:19;;;;;;;63.42;28.63;;;;;;;;;;5031679;28;20107;-58
2020/12/30 06:26:45;;;;;;;65.07;27.77;;;;;;;;;;5028879;28;20061;-58
2020/12/30 06:29:13;;;;;;;64.35;29.60;;;;;;;;;;5031770;28;20041;-58
2020/12/30 06:31:46;;;;;;;61.25;29.48;;;;;;;;;;5034996;28;20041;-58
2020/12/30 06:34:13;;;;;;;61.90;30.05;;;;;;;;;;5035135;28;20658;-58
2020/12/30 06:36:40;;;;;;;68.10;29.95;;;;;;;;;;5026813;28;20075;-58
2020/12/30 06:39:22;;;;;;;68.00;29.88;;;;;;;;;;5030244;28;20080;-58
2020/12/30 06:41:54;;;;;;;58.42;29.52;;;;;;;;;;5033329;28;20099;-58
2020/12/30 06:44:39;;;;;;;60.30;29.02;;;;;;;;;;5035042;28;20041;-58
2020/12/30 06:47:06;;;;;;;59.75;27.92;;;;;;;;;;5028865;28;20213;-58
2020/12/30 06:49:32;;;;;;;68.97;30.60;;;;;;;;;;5030159;28;20025;-58
2020/12/30 06:51:58;;;;;;;69.00;28.85;;;;;;;;;;5033589;28;20120;-57
2020/12/30 06:54:43;;;;;;;63.97;29.98;;;;;;;;;;5031787;28;20041;-58
2020/12/30 06:57:09;;;;;;;68.20;31.75;;;;;;;;;;5028359;28;20033;-58
2020/12/30 06:59:36;;;;;;;62.13;30.45;;;;;;;;;;5036903;28;20033;-58
2020/12/30 07:02:04;;;;;;;67.60;31.95;;;;;;;;;;5017936;28;20112;-58
2020/12/30 07:04:31;;;;;;;68.63;31.35;;;;;;;;;;5017562;28;20040;-57
2020/12/30 07:06:58;;;;;;;69.18;32.38;;;;;;;;;;5024238;28;20111;-58
2020/12/30 07:09:34;;;;;;;64.50;30.38;;;;;;;;;;5019392;28;20041;-58
2020/12/30 07:12:07;;;;;;;64.95;32.42;;;;;;;;;;5023534;28;20135;-58
2020/12/30 07:14:33;;;;;;;70.82;32.03;;;;;;;;;;5017663;28;20040;-58
2020/12/30 07:17:01;;;;;;;69.07;32.83;;;;;;;;;;5023193;28;20037;-58
2020/12/30 07:19:34;;;;;;;77.55;32.05;;;;;;;;;;5023027;28;20037;-58
2020/12/30 07:22:03;;;;;;;74.13;33.03;;;;;;;;;;5017332;28;20044;-58
2020/12/30 07:24:29;;;;;;;67.03;31.70;;;;;;;;;;5023332;28;20037;-58
2020/12/30 07:26:56;;;;;;;66.20;32.80;;;;;;;;;;5022910;28;20032;-58
2020/12/30 07:29:22;;;;;;;68.55;31.92;;;;;;;;;;5016301;28;20040;-58
2020/12/30 07:31:52;;;;;;;70.00;30.65;;;;;;;;;;5021937;28;20136;-58
2020/12/30 07:34:23;;;;;;;65.47;29.13;;;;;;;;;;5018158;28;20041;-58
2020/12/30 07:36:49;;;;;;;65.00;30.40;;;;;;;;;;5020357;28;20091;-58
2020/12/30 07:39:16;;;;;;;68.10;29.83;;;;;;;;;;5020599;28;20051;-58
2020/12/30 07:41:44;;;;;;;66.30;30.65;;;;;;;;;;5019851;28;20063;-56
2020/12/30 07:44:10;;;;;;;65.70;29.92;;;;;;;;;;4997985;28;20045;-58
2020/12/30 07:46:37;;;;;;;61.85;29.55;;;;;;;;;;5023602;28;20072;-58
2020/12/30 07:49:16;;;;;;;64.30;29.58;;;;;;;;;;5028581;28;20044;-58
2020/12/30 07:51:50;;;;;;;62.20;28.58;;;;;;;;;;5023528;28;20079;-58
2020/12/30 07:54:17;;;;;;;65.70;29.33;;;;;;;;;;5019323;28;20037;-58
2020/12/30 07:56:43;;;;;;;65.97;30.13;;;;;;;;;;5018398;28;20041;-58
2020/12/30 07:59:09;;;;;;;62.33;28.38;;;;;;;;;;5020232;28;20059;-58
2020/12/30 08:01:35;;;;;;;59.47;27.75;;;;;;;;;;5018808;28;20041;-58
2020/12/30 08:04:10;;;;;;;67.45;28.85;;;;;;;;;;5024648;28;20494;-58
2020/12/30 08:06:46;;;;;;;61.00;27.88;;;;;;;;;;5022005;28;20041;-58
2020/12/30 08:09:13;;;;;;;66.75;26.83;;;;;;;;;;5015107;28;20095;-57
2020/12/30 08:11:48;;;;;;;63.15;29.58;;;;;;;;;;5036224;28;20038;-58
2020/12/30 08:14:15;;;;;;;69.05;28.33;;;;;;;;;;5019991;28;21048;-58
2020/12/30 08:16:50;;;;;;;66.93;27.58;;;;;;;;;;5030870;28;20042;-58
2020/12/30 08:19:26;;;;;;;63.42;28.48;;;;;;;;;;5024613;28;20032;-58
2020/12/30 08:21:58;;;;;;;67.70;28.38;;;;;;;;;;5022370;28;20045;-58
2020/12/30 08:24:28;;;;;;;69.95;27.42;;;;;;;;;;5033906;28;20509;-58
2020/12/30 08:26:54;;;;;;;68.80;29.10;;;;;;;;;;5026793;28;20037;-58
2020/12/30 08:29:20;;;;;;;71.93;29.88;;;;;;;;;;5019559;28;20094;-58
2020/12/30 08:31:51;;;;;;;64.20;27.92;;;;;;;;;;5035160;28;20045;-58
2020/12/30 08:34:22;;;;;;;74.40;29.48;;;;;;;;;;5026114;28;20082;-58
2020/12/30 08:36:52;;;;;;;77.00;30.80;;;;;;;;;;5020770;28;20068;-58
2020/12/30 08:39:19;;;;;;;70.35;29.33;;;;;;;;;;5024969;28;20113;-58
2020/12/30 08:41:52;;;;;;;73.63;31.20;;;;;;;;;;5038711;28;20508;-58
2020/12/30 08:44:19;;;;;;;73.60;29.40;;;;;;;;;;5020074;28;20426;-58
2020/12/30 08:46:50;;;;;;;74.28;30.02;;;;;;;;;;5025699;28;20059;-58
2020/12/30 08:49:19;;;;;;;68.95;29.73;;;;;;;;;;5024824;28;20412;-58
2020/12/30 08:51:46;;;;;;;76.00;30.63;;;;;;;;;;5019178;28;20044;-58
2020/12/30 08:54:15;;;;;;;79.10;31.80;;;;;;;;;;5021916;28;20124;-58
2020/12/30 08:56:42;;;;;;;83.45;32.63;;;;;;;;;;5011361;28;20064;-58
2020/12/30 08:59:08;;;;;;;83.35;33.83;;;;;;;;;;5030721;28;20068;-57
2020/12/30 09:01:35;;;;;;;85.22;34.17;;;;;;;;;;5024845;28;20037;-57
2020/12/30 09:04:10;;;;;;;88.95;35.22;;;;;;;;;;5021078;28;20405;-58
2020/12/30 09:06:39;;;;;;;84.30;35.42;;;;;;;;;;5023480;28;20520;-58
2020/12/30 09:09:10;;;;;;;95.97;36.72;;;;;;;;;;5020953;28;20083;-58
2020/12/30 09:11:36;;;;;;;88.15;37.05;;;;;;;;;;5021762;28;20053;-58
2020/12/30 09:14:15;;;;;;;92.80;37.03;;;;;;;;;;5019308;28;20029;-57
2020/12/30 09:16:54;;;;;;;94.30;37.10;;;;;;;;;;5023695;28;20102;-58
2020/12/30 09:19:20;;;;;;;90.55;37.42;;;;;;;;;;5025637;28;20512;-58
2020/12/30 09:21:46;;;;;;;88.75;38.78;;;;;;;;;;5019822;28;20056;-58
2020/12/30 09:24:13;;;;;;;94.95;38.80;;;;;;;;;;5018986;28;20222;-57
2020/12/30 09:26:39;;;;;;;95.57;37.38;;;;;;;;;;5030125;28;20079;-58
2020/12/30 09:29:16;;;;;;;86.80;36.97;;;;;;;;;;5026141;28;20116;-58
2020/12/30 09:31:42;;;;;;;89.53;39.05;;;;;;;;;;5024191;28;20044;-58
2020/12/30 09:34:17;;;;;;;89.55;37.65;;;;;;;;;;5020610;28;20079;-58
2020/12/30 09:36:58;;;;;;;95.50;38.00;;;;;;;;;;5021911;28;20045;-58
2020/12/30 09:39:27;;;;;;;85.40;36.08;;;;;;;;;;5027393;28;20978;-58
2020/12/30 09:42:00;;;;;;;87.32;34.92;;;;;;;;;;5016178;28;20102;-58
2020/12/30 09:44:26;;;;;;;87.85;34.42;;;;;;;;;;5022166;28;20513;-58
2020/12/30 09:46:54;;;;;;;82.45;35.30;;;;;;;;;;5028999;28;20493;-58
2020/12/30 09:49:20;;;;;;;82.97;35.92;;;;;;;;;;5029438;28;20037;-59
2020/12/30 09:51:53;;;;;;;85.43;35.00;;;;;;;;;;5028075;28;20045;-58
2020/12/30 09:54:22;;;;;;;87.68;34.92;;;;;;;;;;5028141;28;20091;-58
2020/12/30 09:56:51;;;;;;;83.78;35.47;;;;;;;;;;5017117;28;20052;-58
2020/12/30 09:59:20;;;;;;;84.40;34.90;;;;;;;;;;5031143;28;20931;-58
2020/12/30 10:01:50;;;;;;;85.70;35.28;;;;;;;;;;5029891;28;20053;-58
2020/12/30 10:04:18;;;;;;;85.55;33.85;;;;;;;;;;5030620;28;20068;-58
2020/12/30 10:06:47;;;;;;;85.03;35.85;;;;;;;;;;5019388;28;20063;-58
2020/12/30 10:09:13;;;;;;;84.03;34.13;;;;;;;;;;5026668;28;20041;-58
2020/12/30 10:11:39;;;;;;;80.93;33.83;;;;;;;;;;5028261;28;20076;-58
2020/12/30 10:14:05;;;;;;;82.90;36.25;;;;;;;;;;5030735;28;20055;-58
2020/12/30 10:16:32;;;;;;;79.82;35.88;;;;;;;;;;5029897;28;20041;-58
2020/12/30 10:18:58;;;;;;;88.82;36.67;;;;;;;;;;5030393;28;20039;-58
2020/12/30 10:21:28;;;;;;;79.05;34.80;;;;;;;;;;5028784;28;20041;-57
2020/12/30 10:23:54;;;;;;;85.07;36.15;;;;;;;;;;5030844;28;20171;-58
2020/12/30 10:26:20;;;;;;;88.50;36.80;;;;;;;;;;5030563;28;20558;-58
2020/12/30 10:28:46;;;;;;;83.45;35.00;;;;;;;;;;5044211;28;20047;-58
2020/12/30 10:31:15;;;;;;;78.25;33.53;;;;;;;;;;5024473;28;20060;-58
2020/12/30 10:33:41;;;;;;;80.53;35.13;;;;;;;;;;5024093;28;20037;-57
2020/12/30 10:36:08;;;;;;;87.90;35.03;;;;;;;;;;5026754;28;20107;-57
2020/12/30 10:38:34;;;;;;;83.03;34.50;;;;;;;;;;5029121;28;20869;-60
2020/12/30 10:41:01;;;;;;;72.05;32.95;;;;;;;;;;5033276;28;20037;-59
2020/12/30 10:43:27;;;;;;;82.20;34.38;;;;;;;;;;5033515;28;20040;-59
2020/12/30 10:45:53;;;;;;;78.88;32.47;;;;;;;;;;5032408;28;20075;-58
2020/12/30 10:48:19;;;;;;;78.28;32.88;;;;;;;;;;5030288;28;20615;-59
2020/12/30 10:50:45;;;;;;;77.47;32.45;;;;;;;;;;5029201;28;20091;-59
2020/12/30 10:53:11;;;;;;;73.43;31.15;;;;;;;;;;5034473;28;20037;-58
2020/12/30 10:55:37;;;;;;;84.30;34.35;;;;;;;;;;5030131;28;20044;-59
2020/12/30 10:58:03;;;;;;;75.97;31.83;;;;;;;;;;5027654;28;20041;-58
2020/12/30 11:00:29;;;;;;;76.70;32.90;;;;;;;;;;5030014;28;20469;-57
2020/12/30 11:02:55;;;;;;;74.68;32.88;;;;;;;;;;5029781;28;20047;-58
2020/12/30 11:05:21;;;;;;;81.85;33.30;;;;;;;;;;5028288;28;20087;-59
2020/12/30 11:07:47;;;;;;;73.03;32.28;;;;;;;;;;5024584;28;20038;-59
2020/12/30 11:10:13;;;;;;;77.13;31.13;;;;;;;;;;5028115;28;20045;-59
2020/12/30 11:12:39;;;;;;;69.82;31.52;;;;;;;;;;5022979;28;20090;-59
2020/12/30 11:15:06;;;;;;;75.95;31.40;;;;;;;;;;5019569;28;20037;-58
2020/12/30 11:17:32;;;;;;;74.72;31.83;;;;;;;;;;5015640;28;21143;-59
2020/12/30 11:19:58;;;;;;;71.75;30.23;;;;;;;;;;5018467;28;20258;-58
2020/12/30 11:22:27;;;;;;;74.75;33.05;;;;;;;;;;5021228;28;20288;-58
2020/12/30 11:24:53;;;;;;;73.45;32.63;;;;;;;;;;5016798;28;20388;-59
2020/12/30 11:27:19;;;;;;;76.00;32.08;;;;;;;;;;5015066;28;20226;-59
2020/12/30 11:29:45;;;;;;;85.03;35.13;;;;;;;;;;5020875;28;20418;-59
2020/12/30 11:32:11;;;;;;;69.90;31.98;;;;;;;;;;5024488;28;20029;-59
2020/12/30 11:34:37;;;;;;;75.70;33.70;;;;;;;;;;5020920;28;20034;-59
2020/12/30 11:37:03;;;;;;;77.13;33.17;;;;;;;;;;5024094;28;20076;-58
2020/12/30 11:39:29;;;;;;;71.93;32.47;;;;;;;;;;5019698;28;20041;-58
2020/12/30 11:41:55;;;;;;;72.72;33.03;;;;;;;;;;5022699;28;20164;-58
2020/12/30 11:44:21;;;;;;;73.22;32.38;;;;;;;;;;5023127;28;20032;-58
2020/12/30 11:46:53;;;;;;;74.10;32.15;;;;;;;;;;5021436;28;20052;-58
2020/12/30 11:49:20;;;;;;;74.47;32.65;;;;;;;;;;5026171;28;20112;-57
2020/12/30 11:51:46;;;;;;;74.03;33.17;;;;;;;;;;5028672;28;20044;-58
2020/12/30 11:54:12;;;;;;;78.47;33.65;;;;;;;;;;5022040;28;20037;-58
2020/12/30 11:56:38;;;;;;;73.90;34.30;;;;;;;;;;5023407;28;20044;-58
2020/12/30 11:59:04;;;;;;;75.82;33.03;;;;;;;;;;5024682;28;20626;-58
2020/12/30 12:01:33;;;;;;;76.00;33.70;;;;;;;;;;5024483;28;20045;-58
2020/12/30 12:03:59;;;;;;;78.00;34.20;;;;;;;;;;5027353;28;20041;-58
2020/12/30 12:06:26;;;;;;;77.93;31.95;;;;;;;;;;5028931;28;20383;-58
2020/12/30 12:08:52;;;;;;;79.20;34.08;;;;;;;;;;5009053;28;20040;-59
2020/12/30 12:11:18;;;;;;;73.28;33.95;;;;;;;;;;5023753;28;20068;-59
2020/12/30 12:13:44;;;;;;;69.70;32.95;;;;;;;;;;5025083;28;20061;-59
2020/12/30 12:16:12;;;;;;;70.35;32.15;;;;;;;;;;5024201;28;20037;-59
2020/12/30 12:18:38;;;;;;;80.97;33.13;;;;;;;;;;5025111;28;20040;-59
2020/12/30 12:21:04;;;;;;;70.80;33.33;;;;;;;;;;5040258;28;20041;-59
2020/12/30 12:23:30;;;;;;;71.63;33.55;;;;;;;;;;5035782;28;20537;-59
2020/12/30 12:25:57;;;;;;;71.95;34.03;;;;;;;;;;5029306;28;20052;-59
2020/12/30 12:28:36;;;;;;;74.05;32.22;;;;;;;;;;5026566;28;20043;-59
2020/12/30 12:31:02;;;;;;;78.63;33.10;;;;;;;;;;5024790;28;20048;-59
2020/12/30 12:33:28;;;;;;;70.13;32.10;;;;;;;;;;5031079;28;20033;-59
2020/12/30 12:35:54;;;;;;;74.13;32.90;;;;;;;;;;5030332;28;20083;-59
2020/12/30 12:38:20;;;;;;;70.43;34.42;;;;;;;;;;5033295;28;20025;-60
2020/12/30 12:40:46;;;;;;;69.68;32.95;;;;;;;;;;5032320;28;20293;-59
2020/12/30 12:43:12;;;;;;;70.13;33.15;;;;;;;;;;5026822;28;20044;-59
2020/12/30 12:45:38;;;;;;;74.25;33.70;;;;;;;;;;5020939;28;20029;-58
2020/12/30 12:48:04;;;;;;;67.32;32.15;;;;;;;;;;5024422;28;20610;-59
2020/12/30 12:50:30;;;;;;;66.22;32.33;;;;;;;;;;5026332;28;20041;-59
2020/12/30 12:52:56;;;;;;;60.42;29.83;;;;;;;;;;5029299;28;20045;-59
2020/12/30 12:55:22;;;;;;;66.72;31.98;;;;;;;;;;5027934;28;20119;-61
2020/12/30 12:57:48;;;;;;;60.72;30.90;;;;;;;;;;5028008;28;20407;-61
2020/12/30 13:00:14;;;;;;;64.25;30.52;;;;;;;;;;5029523;28;20041;-59
2020/12/30 13:02:40;;;;;;;61.95;31.15;;;;;;;;;;5024221;28;20436;-58
2020/12/30 13:05:06;;;;;;;57.15;28.48;;;;;;;;;;5018537;28;21753;-58
2020/12/30 13:07:32;;;;;;;57.05;29.85;;;;;;;;;;5043861;28;20114;-58
2020/12/30 13:09:58;;;;;;;59.38;29.33;;;;;;;;;;5025068;28;20052;-58
2020/12/30 13:12:24;;;;;;;54.30;28.45;;;;;;;;;;5022063;28;20037;-58
2020/12/30 13:14:50;;;;;;;56.47;28.00;;;;;;;;;;5033528;28;20029;-58
2020/12/30 13:17:16;;;;;;;58.65;29.40;;;;;;;;;;5028511;28;20048;-58
2020/12/30 13:19:42;;;;;;;51.10;26.73;;;;;;;;;;5014648;28;20744;-58
2020/12/30 13:22:08;;;;;;;57.65;28.63;;;;;;;;;;5020676;28;20040;-58
2020/12/30 13:24:34;;;;;;;55.08;26.77;;;;;;;;;;4998398;28;20044;-58
2020/12/30 13:27:00;;;;;;;56.72;28.08;;;;;;;;;;5014323;28;20140;-58
2020/12/30 13:29:26;;;;;;;53.42;26.10;;;;;;;;;;5028417;28;20033;-58
2020/12/30 13:31:52;;;;;;;51.35;27.85;;;;;;;;;;5024179;28;20053;-58
2020/12/30 13:34:18;;;;;;;55.95;27.17;;;;;;;;;;5035242;28;20052;-58
2020/12/30 13:36:44;;;;;;;50.67;26.83;;;;;;;;;;5032097;28;20556;-58
2020/12/30 13:39:10;;;;;;;53.00;27.67;;;;;;;;;;5024616;28;20068;-59
2020/12/30 13:41:36;;;;;;;53.50;27.42;;;;;;;;;;5026991;28;20123;-58
2020/12/30 13:44:05;;;;;;;51.92;27.13;;;;;;;;;;5021017;28;20041;-58
2020/12/30 13:46:31;;;;;;;55.65;26.70;;;;;;;;;;5023401;28;20132;-58
2020/12/30 13:48:57;;;;;;;45.47;26.08;;;;;;;;;;5023806;28;20237;-58
2020/12/30 13:51:23;;;;;;;47.83;24.30;;;;;;;;;;5024898;28;20925;-58
2020/12/30 13:53:49;;;;;;;49.45;24.20;;;;;;;;;;5023251;28;20045;-58
2020/12/30 13:56:23;;;;;;;48.30;24.25;;;;;;;;;;5019246;28;21542;-58
2020/12/30 13:58:49;;;;;;;40.55;23.38;;;;;;;;;;5024057;28;20041;-58
2020/12/30 14:01:16;;;;;;;42.00;23.15;;;;;;;;;;5022554;28;20447;-62
2020/12/30 14:03:41;;;;;;;45.40;23.77;;;;;;;;;;5010340;28;20166;-59
2020/12/30 14:06:07;;;;;;;45.95;22.70;;;;;;;;;;5018663;28;20155;-58
2020/12/30 14:08:34;;;;;;;42.17;22.95;;;;;;;;;;5023303;28;20040;-62
2020/12/30 14:11:00;;;;;;;39.45;23.08;;;;;;;;;;5025999;28;20041;-62
2020/12/30 14:13:26;;;;;;;38.65;21.65;;;;;;;;;;5022376;28;20041;-62
2020/12/30 14:15:52;;;;;;;40.83;22.48;;;;;;;;;;5024025;28;20028;-62